LFMV/AVN METAR and TAF weather

Enter ICAO airport designator
Station Type Date Time Source
LFMV METAR 2020/01/28 05:00 UTC NOAA

LFMV 280500Z AUTO 08002KT 9999 OVC060 08/07 Q1014 TEMPO 2500 BR BKN008


Station Type Date Time Source
LFMV Decoded METAR 2020/01/28 05:00 UTC NOAA

Station name not available
Jan 28, 2020 - 12:00 AM EST / 2020.01.28 0500 UTC
Wind: from the E (080 degrees) at 2 MPH (2 KT):0
Visibility: greater than 7 mile(s):0
Sky conditions: overcast
Temperature: 46 F (8 C)
Dew Point: 44 F (7 C)
Relative Humidity: 93%
Pressure (altimeter): 29.94 in. Hg (1014 hPa)
ob: LFMV 280500Z AUTO 08002KT 9999 OVC060 08/07 Q1014 TEMPO 2500 BR BKN008
cycle: 5

Station Type Date Time Source
LFMV TAF 2020/01/28 03:00 UTC NOAA

TAF LFMV 280200Z 2803/2903 17006KT 9999 SCT040 PROB30
TEMPO 2803/2808 VRB03KT 2500 BR
BECMG 2808/2810 23010KT CAVOK
TEMPO 2900/2903 VRB04KT

Example: see airport list